Miho Yonago Airport
RJOH : now visible

Airfield :











YOU CAN JOIN US ON...

 
LOGIN :

Register | Disclaimer

   EN    FR    IT 

 









Legend :    VFR   Marginal VFR   IFR   Intensive IFR   Very Intensive IFR
Visi :
Ceiling :
>= 8 km
>= 3000ft
5 to 8 km
1000 to 3000 ft
1500m to 5 km
500 to 1000 ft
800 to 1500m
200 to 500 ft
< 800m
< 200 ft
Symbols :   Thunderstorms  Fog  Heavy snow  Heavy precipitations  Wind > 20 kt






- Airport Elevation : 20 ft
- IATA code : YGJ


RJOH - Miho Yonago

CURRENT METAR :
  • 060900Z 11003KT 080V140 9999 -SHRA FEW006 SCT020 BKN035 25/24 Q1002

EXPIRED METARs :
  • 060800Z 08004KT 050V120 9999 -RA FEW008 BKN035 OVC100 26/24 Q1002
  • 060700Z 34007KT 9999 -RA FEW008 BKN100 OVC130 26/24 Q1002

TAF TAF RJOH
Valid from the 06 at 06:00 until the 07 at 12:00 UTC


060511Z 0606/0712 10004KT 9999 -SHRA FEW008 SCT025 BKN040
TEMPO 0618/0700 3000 SHRA BR FEW003 BKN008 BKN015
BECMG 0621/0700 26018KT
TEMPO 0703/0709 26020G30KT
BECMG 0709/0712 24006KT
RJJJ FIR / Asia



MET'MAP, your aeronautical weather chart ! - Copyright ORBIFLY December 2007 - Disclaimer

ORBIFLY MET'MAP TEAM :

Programming & Development : Alexandra Zaïnal
Concept & original design : Baudouin d'Aumeries
Assistance for programming : Marc-Olivier Méhu
Technical & hardware support : Manuel Goepfert

Contact : metmap@orbifly.com




SOURCES & CREDITS :

   NOAA       Earth
Advisory